UEX NZQN-NZQN
Flight info
| Callsign | UEX |
|---|---|
| Flight time | N/A |
| Altitude | 11000 |
| Route | NZQN |
| Aircraft | DA42/L-SBDGRY/S |
Departure
| Time | 2026-05-08 09:36 |
|---|---|
| Airport | Queenstown Airport (NZQN) |
Arrival
| Time | N/A |
|---|---|
| Airport | Queenstown Airport (NZQN) |
| Time | Latitude | Longitude | Altitude | Speed | Heading |
|---|---|---|---|---|---|
| 2026-05-08 09:27 | -45.02088 | 168.73807 | 1166 ft | 0 kts | 258° |
| 2026-05-08 09:27 | -45.02088 | 168.73808 | 1166 ft | 0 kts | 258° |
| 2026-05-08 09:31 | -45.02088 | 168.73809 | 1166 ft | 0 kts | 258° |
| 2026-05-08 09:33 | -45.02097 | 168.73808 | 1166 ft | 7 kts | 127° |
| 2026-05-08 09:33 | -45.02061 | 168.73900 | 1166 ft | 9 kts | 49° |
| 2026-05-08 09:33 | -45.02046 | 168.73954 | 1168 ft | 14 kts | 101° |
| 2026-05-08 09:34 | -45.01965 | 168.74044 | 1170 ft | 15 kts | 22° |
| 2026-05-08 09:34 | -45.01905 | 168.74175 | 1173 ft | 24 kts | 79° |
| 2026-05-08 09:34 | -45.01883 | 168.74241 | 1172 ft | 5 kts | 137° |
| 2026-05-08 09:34 | -45.01897 | 168.74234 | 1171 ft | 0 kts | 257° |
| 2026-05-08 09:35 | -45.01905 | 168.74191 | 1173 ft | 8 kts | 241° |
| 2026-05-08 09:35 | -45.01934 | 168.74194 | 1171 ft | 3 kts | 159° |
| 2026-05-08 09:35 | -45.01998 | 168.74223 | 1172 ft | 30 kts | 160° |
| 2026-05-08 09:35 | -45.02344 | 168.74396 | 1189 ft | 72 kts | 166° |
| 2026-05-08 09:36 | -45.02873 | 168.74533 | 1363 ft | 86 kts | 179° |
| 2026-05-08 09:36 | -45.03509 | 168.74608 | 1614 ft | 91 kts | 175° |
| 2026-05-08 09:36 | -45.04128 | 168.74725 | 1920 ft | 88 kts | 172° |
| 2026-05-08 09:36 | -45.04773 | 168.74748 | 2097 ft | 99 kts | 184° |
| 2026-05-08 09:37 | -45.05406 | 168.74447 | 2357 ft | 98 kts | 210° |
| 2026-05-08 09:37 | -45.05914 | 168.73745 | 2452 ft | 111 kts | 230° |
| 2026-05-08 09:37 | -45.06139 | 168.72605 | 2492 ft | 131 kts | 263° |
| 2026-05-08 09:37 | -45.06189 | 168.71274 | 2469 ft | 140 kts | 257° |
| 2026-05-08 09:38 | -45.06375 | 168.69945 | 2440 ft | 140 kts | 253° |
| 2026-05-08 09:38 | -45.06567 | 168.68591 | 2439 ft | 141 kts | 254° |
| 2026-05-08 09:38 | -45.06754 | 168.67223 | 2442 ft | 142 kts | 255° |
| 2026-05-08 09:38 | -45.06933 | 168.65847 | 2443 ft | 142 kts | 255° |
| 2026-05-08 09:39 | -45.07113 | 168.64471 | 2439 ft | 142 kts | 255° |
| 2026-05-08 09:39 | -45.07288 | 168.63092 | 2437 ft | 142 kts | 255° |
| 2026-05-08 09:39 | -45.07460 | 168.61718 | 2437 ft | 141 kts | 255° |
| 2026-05-08 09:39 | -45.07633 | 168.60351 | 2435 ft | 142 kts | 255° |
| 2026-05-08 09:40 | -45.07806 | 168.58980 | 2435 ft | 141 kts | 255° |
| 2026-05-08 09:40 | -45.07981 | 168.57605 | 2434 ft | 142 kts | 255° |
| 2026-05-08 09:40 | -45.08152 | 168.56232 | 2434 ft | 142 kts | 255° |
| 2026-05-08 09:40 | -45.08327 | 168.54861 | 2431 ft | 141 kts | 255° |
| 2026-05-08 09:41 | -45.08501 | 168.53498 | 2435 ft | 140 kts | 255° |
| 2026-05-08 09:41 | -45.08674 | 168.52137 | 2434 ft | 141 kts | 255° |
| 2026-05-08 09:41 | -45.08847 | 168.50774 | 2438 ft | 141 kts | 255° |
| 2026-05-08 09:41 | -45.09016 | 168.49409 | 2437 ft | 141 kts | 256° |
| 2026-05-08 09:42 | -45.09192 | 168.48036 | 2437 ft | 142 kts | 255° |
| 2026-05-08 09:42 | -45.09366 | 168.46670 | 2438 ft | 141 kts | 256° |
| 2026-05-08 09:42 | -45.09156 | 168.45310 | 2432 ft | 151 kts | 303° |
| 2026-05-08 09:42 | -45.08245 | 168.44584 | 2431 ft | 155 kts | 345° |
| 2026-05-08 09:43 | -45.07190 | 168.44238 | 2433 ft | 156 kts | 344° |
| 2026-05-08 09:43 | -45.06136 | 168.43882 | 2430 ft | 156 kts | 345° |
| 2026-05-08 09:43 | -45.05089 | 168.43518 | 2436 ft | 154 kts | 345° |
| 2026-05-08 09:43 | -45.04055 | 168.43161 | 2445 ft | 152 kts | 345° |
| 2026-05-08 09:44 | -45.03035 | 168.42807 | 2470 ft | 150 kts | 345° |
| 2026-05-08 09:44 | -45.02029 | 168.42459 | 2472 ft | 151 kts | 345° |
| 2026-05-08 09:44 | -45.01008 | 168.42099 | 2475 ft | 151 kts | 345° |
| 2026-05-08 09:44 | -44.99986 | 168.41738 | 2479 ft | 151 kts | 345° |
| 2026-05-08 09:45 | -44.98968 | 168.41376 | 2482 ft | 151 kts | 345° |
| 2026-05-08 09:45 | -44.97945 | 168.41022 | 2485 ft | 151 kts | 345° |
| 2026-05-08 09:45 | -44.97075 | 168.40266 | 2478 ft | 147 kts | 313° |
| 2026-05-08 09:45 | -44.96588 | 168.39057 | 2475 ft | 141 kts | 283° |
| 2026-05-08 09:46 | -44.96315 | 168.37756 | 2559 ft | 135 kts | 283° |
| 2026-05-08 09:46 | -44.96033 | 168.36522 | 2731 ft | 130 kts | 284° |
| 2026-05-08 09:46 | -44.95745 | 168.35323 | 2912 ft | 128 kts | 283° |
| 2026-05-08 09:46 | -44.95465 | 168.34146 | 3106 ft | 125 kts | 284° |
| 2026-05-08 09:47 | -44.95190 | 168.32957 | 3268 ft | 130 kts | 284° |
| 2026-05-08 09:47 | -44.94904 | 168.31715 | 3436 ft | 134 kts | 284° |
| 2026-05-08 09:47 | -44.94618 | 168.30479 | 3597 ft | 131 kts | 284° |
| 2026-05-08 09:47 | -44.94382 | 168.29239 | 3781 ft | 132 kts | 268° |
| 2026-05-08 09:48 | -44.94684 | 168.28046 | 3941 ft | 130 kts | 228° |
| 2026-05-08 09:48 | -44.95365 | 168.27170 | 3982 ft | 136 kts | 211° |
| 2026-05-08 09:48 | -44.96204 | 168.26542 | 3988 ft | 138 kts | 205° |
| 2026-05-08 09:48 | -44.97067 | 168.25924 | 3985 ft | 140 kts | 205° |
| 2026-05-08 09:49 | -44.97941 | 168.25304 | 3986 ft | 143 kts | 205° |
| 2026-05-08 09:49 | -44.98719 | 168.24476 | 3966 ft | 143 kts | 236° |
| 2026-05-08 09:49 | -44.98753 | 168.23113 | 3977 ft | 148 kts | 289° |
| 2026-05-08 09:49 | -44.98031 | 168.22081 | 3973 ft | 152 kts | 326° |
| 2026-05-08 09:50 | -44.97123 | 168.21287 | 3976 ft | 154 kts | 324° |
| 2026-05-08 09:50 | -44.96223 | 168.20468 | 3978 ft | 153 kts | 324° |
| 2026-05-08 09:50 | -44.95319 | 168.19653 | 3983 ft | 155 kts | 325° |
| 2026-05-08 09:50 | -44.94404 | 168.18826 | 3981 ft | 157 kts | 324° |
| 2026-05-08 09:51 | -44.93478 | 168.17994 | 3979 ft | 158 kts | 324° |
| 2026-05-08 09:51 | -44.92523 | 168.17237 | 3975 ft | 158 kts | 334° |
| 2026-05-08 09:51 | -44.91509 | 168.16628 | 3972 ft | 158 kts | 334° |
| 2026-05-08 09:51 | -44.90501 | 168.16030 | 3969 ft | 157 kts | 335° |
| 2026-05-08 09:52 | -44.89486 | 168.15430 | 3970 ft | 159 kts | 335° |
| 2026-05-08 09:52 | -44.88456 | 168.14845 | 3962 ft | 160 kts | 341° |
| 2026-05-08 09:52 | -44.87385 | 168.14464 | 3962 ft | 158 kts | 347° |
| 2026-05-08 09:52 | -44.86285 | 168.14281 | 3961 ft | 160 kts | 355° |
| 2026-05-08 09:53 | -44.85177 | 168.14154 | 3960 ft | 159 kts | 355° |
| 2026-05-08 09:53 | -44.84075 | 168.14023 | 3961 ft | 160 kts | 355° |
| 2026-05-08 09:53 | -44.82983 | 168.13888 | 3959 ft | 159 kts | 354° |
| 2026-05-08 09:53 | -44.81867 | 168.13757 | 3955 ft | 159 kts | 354° |
| 2026-05-08 09:54 | -44.80849 | 168.13260 | 3952 ft | 156 kts | 317° |
| 2026-05-08 09:54 | -44.80427 | 168.11962 | 3893 ft | 148 kts | 265° |
| 2026-05-08 09:54 | -44.80745 | 168.10594 | 3585 ft | 155 kts | 241° |
| 2026-05-08 09:54 | -44.81158 | 168.09290 | 3817 ft | 137 kts | 239° |
| 2026-05-08 09:55 | -44.81446 | 168.08009 | 3942 ft | 140 kts | 260° |
| 2026-05-08 09:55 | -44.81455 | 168.06595 | 3968 ft | 150 kts | 271° |
| 2026-05-08 09:55 | -44.81139 | 168.05167 | 3970 ft | 156 kts | 293° |
| 2026-05-08 09:55 | -44.80620 | 168.03791 | 3964 ft | 159 kts | 295° |
| 2026-05-08 09:56 | -44.79947 | 168.02591 | 3953 ft | 162 kts | 323° |
| 2026-05-08 09:56 | -44.78935 | 168.01935 | 3967 ft | 160 kts | 335° |
| 2026-05-08 09:56 | -44.77912 | 168.01305 | 3961 ft | 161 kts | 334° |
| 2026-05-08 09:56 | -44.76895 | 168.00625 | 3950 ft | 162 kts | 324° |
| 2026-05-08 09:57 | -44.75989 | 167.98110 | 4637 ft | 112 kts | 285° |
| 2026-05-08 09:57 | -44.75780 | 167.96771 | 3918 ft | 174 kts | 303° |
| 2026-05-08 09:57 | -44.74838 | 167.95773 | 3696 ft | 163 kts | 324° |
| 2026-05-08 09:58 | -44.73969 | 167.94848 | 3698 ft | 147 kts | 321° |
| 2026-05-08 09:58 | -44.73028 | 167.94322 | 3225 ft | 162 kts | 6° |
| 2026-05-08 09:58 | -44.71969 | 167.94850 | 2998 ft | 160 kts | 27° |
| 2026-05-08 09:58 | -44.70959 | 167.95649 | 2481 ft | 166 kts | 34° |
| 2026-05-08 09:59 | -44.69884 | 167.96074 | 1984 ft | 159 kts | 359° |
| 2026-05-08 09:59 | -44.68908 | 167.95511 | 1306 ft | 149 kts | 315° |
| 2026-05-08 09:59 | -44.68341 | 167.94409 | 520 ft | 124 kts | 296° |
| 2026-05-08 09:59 | -44.67918 | 167.93511 | 203 ft | 101 kts | 297° |
| 2026-05-08 10:00 | -44.67560 | 167.92747 | 12 ft | 84 kts | 298° |
| 2026-05-08 10:00 | -44.67313 | 167.92242 | 12 ft | 32 kts | 307° |
| 2026-05-08 10:00 | -44.67205 | 167.92034 | 16 ft | 26 kts | 306° |
| 2026-05-08 10:00 | -44.67164 | 167.91931 | 22 ft | 4 kts | 310° |
| 2026-05-08 10:01 | -44.67158 | 167.91956 | 21 ft | 17 kts | 125° |
| 2026-05-08 10:01 | -44.67346 | 167.92311 | 14 ft | 70 kts | 125° |
| 2026-05-08 10:01 | -44.67484 | 167.92989 | 238 ft | 84 kts | 67° |
| 2026-05-08 10:01 | -44.67404 | 167.93686 | 387 ft | 83 kts | 148° |
| 2026-05-08 10:02 | -44.67746 | 167.93239 | 246 ft | 94 kts | 278° |
| 2026-05-08 10:02 | -44.67411 | 167.92449 | 9 ft | 83 kts | 300° |
| 2026-05-08 10:02 | -44.67211 | 167.92039 | 15 ft | 15 kts | 296° |